Time;durP1;ratioP1;P1;durP2;ratioP2;P2;SDS_P1;SDS_P2;PMS_P1;PMS_P2;Temp;Humidity;BMP_temperature;BMP_pressure;BME280_temperature;BME280_humidity;BME280_pressure;Samples;Min_cycle;Max_cycle;Signal;HPM_P1;HPM_P2
2021/07/14 00:01:23;;;;;;;10.93;3.37;;;;;;;17.98;63.50;100966.41;1685359;84;21265;-71
2021/07/14 00:03:56;;;;;;;10.63;3.30;;;;;;;17.95;63.59;100961.96;1676915;84;21284;-70
2021/07/14 00:06:31;;;;;;;10.32;3.50;;;;;;;17.92;63.61;100962.28;1680597;84;21150;-70
2021/07/14 00:09:09;;;;;;;12.50;3.27;;;;;;;17.87;63.71;100965.44;1688269;84;21165;-70
2021/07/14 00:11:52;;;;;;;11.80;3.83;;;;;;;17.84;63.82;100961.78;1678140;84;21173;-69
2021/07/14 00:17:25;;;;;;;9.95;3.67;;;;;;;17.77;64.06;100967.41;1701053;84;21213;-68
2021/07/14 00:22:27;;;;;;;16.02;3.80;;;;;;;17.68;64.34;100968.41;1700622;84;21316;-70
2021/07/14 00:25:01;;;;;;;14.45;4.15;;;;;;;17.62;64.47;100970.41;1697188;84;21291;-70
2021/07/14 00:27:40;;;;;;;9.75;3.87;;;;;;;17.57;64.62;100967.41;1686740;84;21153;-70
2021/07/14 00:30:18;;;;;;;15.03;4.30;;;;;;;17.54;64.73;100967.73;1686993;84;21303;-69
2021/07/14 00:32:49;;;;;;;16.30;3.75;;;;;;;17.52;64.87;100977.66;1676777;84;21351;-70
2021/07/14 00:35:23;;;;;;;8.90;3.15;;;;;;;17.48;65.04;100970.50;1682624;84;21296;-70
2021/07/14 00:37:56;;;;;;;;;;;;;;;17.44;65.14;100970.50;1685241;84;21200;-70
2021/07/14 00:40:29;;;;;;;17.37;3.60;;;;;;;17.40;65.27;100974.96;1688164;84;20200;-69
2021/07/14 00:43:03;;;;;;;11.88;3.40;;;;;;;17.33;65.47;100978.76;1690244;84;21340;-70
2021/07/14 00:45:36;;;;;;;15.48;3.17;;;;;;;17.29;65.59;100975.28;1701430;84;21193;-69
2021/07/14 00:48:09;;;;;;;13.85;3.77;;;;;;;17.24;65.73;100980.22;1696931;84;21295;-70
2021/07/14 00:50:42;;;;;;;11.97;3.80;;;;;;;17.21;65.89;100977.41;1676846;84;21292;-70
2021/07/14 00:53:16;;;;;;;14.63;3.72;;;;;;;17.18;65.99;100977.72;1683367;84;21692;-70
2021/07/14 00:55:50;;;;;;;7.92;3.52;;;;;;;17.15;66.11;100973.22;1683032;84;21242;-70
2021/07/14 00:58:23;;;;;;;21.30;3.80;;;;;;;17.12;66.22;100977.54;1694611;84;21299;-69
2021/07/14 01:00:57;;;;;;;14.00;3.62;;;;;;;17.09;66.31;100980.50;1699217;84;21243;-69
2021/07/14 01:03:33;;;;;;;14.35;3.95;;;;;;;17.07;66.31;100977.19;1681840;84;21335;-70
2021/07/14 01:06:06;;;;;;;11.50;3.17;;;;;;;17.03;66.41;100975.86;1693797;84;21193;-69
2021/07/14 01:09:00;;;;;;;14.58;3.60;;;;;;;17.02;66.46;100979.48;1689548;84;21161;-70
2021/07/14 01:11:34;;;;;;;9.30;2.90;;;;;;;17.00;66.55;100978.33;1639882;84;21389;-70
2021/07/14 01:14:25;;;;;;;9.23;3.25;;;;;;;16.99;66.66;100984.59;1671216;84;21348;-70
2021/07/14 01:17:03;;;;;;;10.68;2.90;;;;;;;16.99;66.69;100987.73;1699041;84;21245;-70
2021/07/14 01:20:05;;;;;;;12.53;3.17;;;;;;;16.97;66.75;100989.71;1697218;83;21766;-71
2021/07/14 01:22:54;;;;;;;8.83;3.02;;;;;;;16.95;66.81;100993.84;1696681;83;21300;-69
2021/07/14 01:26:04;;;;;;;16.62;3.25;;;;;;;16.94;66.83;100996.63;1701227;83;21253;-69
2021/07/14 01:28:38;;;;;;;11.55;3.30;;;;;;;16.92;66.87;100993.32;1683737;84;21196;-69
2021/07/14 01:31:18;;;;;;;13.58;2.98;;;;;;;16.89;66.91;100989.17;1685862;84;21829;-69
2021/07/14 01:33:55;;;;;;;13.45;3.47;;;;;;;16.89;67.02;100989.66;1683007;84;21319;-69
2021/07/14 01:36:29;;;;;;;9.88;2.87;;;;;;;16.89;67.12;100993.14;1699319;84;21354;-70
2021/07/14 01:39:02;;;;;;;8.93;3.45;;;;;;;16.90;67.13;100997.45;1688345;84;21348;-69
2021/07/14 01:41:38;;;;;;;11.95;4.05;;;;;;;16.89;67.20;100999.75;1686980;84;21282;-69
2021/07/14 01:44:12;;;;;;;11.10;3.30;;;;;;;16.90;67.22;100997.95;1674647;84;21282;-70
2021/07/14 01:46:45;;;;;;;12.97;3.07;;;;;;;16.90;67.14;100994.81;1688226;84;21382;-69
2021/07/14 01:49:19;;;;;;;12.43;3.10;;;;;;;16.90;67.16;100997.45;1672719;84;21568;-69
2021/07/14 01:51:58;;;;;;;8.53;3.17;;;;;;;16.92;67.22;100994.64;1692611;84;21229;-69
2021/07/14 01:54:31;;;;;;;12.37;3.42;;;;;;;16.95;67.18;100991.69;1678699;84;21350;-70
2021/07/14 01:57:05;;;;;;;15.60;3.47;;;;;;;16.98;67.13;100994.02;1689164;84;21317;-71
2021/07/14 01:59:41;;;;;;;9.68;2.92;;;;;;;17.02;67.06;100995.35;1690165;84;21288;-70
2021/07/14 02:02:14;;;;;;;11.88;3.10;;;;;;;17.07;66.99;100995.70;1690112;84;21328;-70
2021/07/14 02:04:47;;;;;;;11.40;2.77;;;;;;;17.11;66.95;101000.52;1699377;83;21292;-70
2021/07/14 02:07:27;;;;;;;10.13;3.05;;;;;;;17.13;66.82;100999.86;1678881;84;21152;-70
2021/07/14 02:10:00;;;;;;;18.07;2.90;;;;;;;17.18;66.75;100998.89;1688315;84;21276;-69
2021/07/14 02:12:34;;;;;;;8.38;2.87;;;;;;;17.23;66.68;101002.37;1679349;84;21176;-69
2021/07/14 02:15:09;;;;;;;10.80;3.23;;;;;;;17.26;66.63;101004.70;1685215;83;21322;-69
2021/07/14 02:18:03;;;;;;;9.70;2.75;;;;;;;17.30;66.58;101006.03;1697665;83;21186;-69
2021/07/14 02:20:37;;;;;;;10.30;2.98;;;;;;;17.35;66.62;101009.86;1690117;84;21233;-69
2021/07/14 02:23:10;;;;;;;7.47;2.95;;;;;;;17.38;66.44;101010.87;1688646;83;21319;-69
2021/07/14 02:25:43;;;;;;;8.85;3.08;;;;;;;17.42;66.35;101007.38;1681638;84;21605;-69
2021/07/14 02:28:18;;;;;;;9.08;2.60;;;;;;;17.46;66.19;101010.87;1673970;84;21178;-69
2021/07/14 02:30:52;;;;;;;9.03;3.22;;;;;;;17.52;66.15;101010.76;1697762;83;21249;-68
2021/07/14 02:33:26;;;;;;;6.35;2.62;;;;;;;17.62;66.05;101011.44;1676441;84;21189;-68
2021/07/14 02:36:03;;;;;;;11.68;3.27;;;;;;;17.73;65.92;101003.66;1674490;84;21300;-68
2021/07/14 02:38:42;;;;;;;13.28;2.98;;;;;;;17.90;65.62;100999.55;1677606;84;21292;-68
2021/07/14 02:41:25;;;;;;;12.23;3.10;;;;;;;18.06;65.24;100999.54;1673489;84;21316;-68
2021/07/14 02:44:06;;;;;;;15.40;2.95;;;;;;;18.24;64.83;101001.19;1676468;84;21326;-69
2021/07/14 02:46:42;;;;;;;10.15;2.75;;;;;;;18.42;64.40;101007.95;1695091;83;21279;-67
2021/07/14 02:49:19;;;;;;;10.15;3.00;;;;;;;18.59;63.86;101005.63;1684124;84;21327;-67
2021/07/14 02:51:52;;;;;;;11.25;3.02;;;;;;;18.75;63.43;101006.91;1691626;83;21333;-68
2021/07/14 02:54:27;;;;;;;15.17;3.13;;;;;;;18.92;62.99;101012.98;1688017;83;21299;-68
2021/07/14 02:57:02;;;;;;;19.10;3.22;;;;;;;19.05;62.48;101015.94;1700547;84;21966;-68
2021/07/14 02:59:39;;;;;;;10.30;2.75;;;;;;;19.20;62.13;101017.37;1682423;84;21874;-69
2021/07/14 03:02:11;;;;;;;7.28;2.58;;;;;;;19.35;61.70;101024.41;1683587;84;21287;-69
2021/07/14 03:04:47;;;;;;;10.93;3.05;;;;;;;19.53;61.26;101021.53;1687374;84;21358;-69
2021/07/14 03:07:25;;;;;;;12.78;2.70;;;;;;;19.70;60.68;101020.42;1672789;84;21193;-70
2021/07/14 03:09:58;;;;;;;8.63;2.83;;;;;;;19.89;60.25;101020.45;1695827;83;21291;-69
2021/07/14 03:12:31;;;;;;;9.83;3.12;;;;;;;20.07;59.54;101015.15;1687107;84;21328;-69
2021/07/14 03:15:10;;;;;;;10.78;3.02;;;;;;;20.28;58.91;101013.16;1694304;83;21343;-70
2021/07/14 03:17:43;;;;;;;6.53;2.90;;;;;;;20.49;58.19;101009.81;1680333;84;21747;-70
2021/07/14 03:20:18;;;;;;;9.58;2.80;;;;;;;20.70;57.59;101018.73;1671591;84;21162;-70
2021/07/14 03:22:53;;;;;;;7.40;2.80;;;;;;;20.92;56.90;101015.63;1679937;84;21244;-71
2021/07/14 03:25:27;;;;;;;11.68;2.60;;;;;;;21.15;56.21;101021.72;1689281;84;21838;-69
2021/07/14 03:28:01;;;;;;;11.38;2.90;;;;;;;21.41;55.54;101021.20;1693312;84;21170;-68
2021/07/14 03:30:35;;;;;;;9.85;2.75;;;;;;;21.67;54.90;101022.81;1676027;84;21161;-69
2021/07/14 03:33:09;;;;;;;13.80;2.85;;;;;;;21.97;54.08;101015.56;1679164;84;21181;-69
2021/07/14 03:35:42;;;;;;;5.57;2.77;;;;;;;22.30;53.14;101017.16;1668799;84;21326;-68
2021/07/14 03:38:16;;;;;;;9.08;2.83;;;;;;;22.60;52.18;101023.44;1680445;84;21308;-68
2021/07/14 03:40:49;;;;;;;8.75;2.62;;;;;;;22.94;51.32;101020.48;1670230;84;21284;-69
2021/07/14 03:43:23;;;;;;;6.90;2.50;;;;;;;23.32;50.15;101025.17;1671663;84;21296;-68
2021/07/14 03:45:57;;;;;;;7.97;2.98;;;;;;;23.70;49.38;101031.36;1686139;84;21315;-69
2021/07/14 03:48:33;;;;;;;13.58;2.58;;;;;;;24.14;48.25;101030.84;1685767;84;21331;-69
2021/07/14 03:51:06;;;;;;;8.25;2.50;;;;;;;24.55;47.17;101028.23;1691884;84;21287;-68
2021/07/14 03:53:39;;;;;;;6.72;2.50;;;;;;;25.07;46.11;101031.86;1688706;84;21304;-69
2021/07/14 03:56:13;;;;;;;7.33;2.55;;;;;;;25.62;45.01;101031.73;1694821;84;21345;-69
2021/07/14 03:58:46;;;;;;;10.70;2.83;;;;;;;26.22;43.79;101033.81;1694925;84;21309;-68
2021/07/14 04:01:19;;;;;;;8.45;3.02;;;;;;;26.84;42.52;101024.77;1700535;84;21300;-69
2021/07/14 04:03:54;;;;;;;8.38;2.60;;;;;;;27.43;41.09;101028.61;1684922;84;21299;-68
2021/07/14 04:06:31;;;;;;;;;;;;;;;27.97;39.98;101027.91;1697303;84;21343;-69
2021/07/14 04:09:24;;;;;;;11.70;2.70;;;;;;;28.53;38.92;101026.06;1700916;84;20236;-69
2021/07/14 04:12:00;;;;;;;7.15;2.52;;;;;;;29.07;37.93;101027.52;1692155;84;21169;-72
2021/07/14 04:14:33;;;;;;;10.93;3.10;;;;;;;29.61;36.78;101027.53;1701167;84;21201;-71
2021/07/14 04:17:07;;;;;;;11.45;2.47;;;;;;;30.10;35.99;101031.89;1671156;84;22345;-71
2021/07/14 04:19:41;;;;;;;11.55;3.02;;;;;;;30.57;35.04;101025.11;1676623;84;21201;-71
2021/07/14 04:22:14;;;;;;;11.35;3.25;;;;;;;31.06;34.14;101020.64;1688178;84;21283;-72
2021/07/14 04:24:47;;;;;;;7.60;2.85;;;;;;;31.52;33.39;101027.42;1697534;84;21326;-71
2021/07/14 04:27:20;;;;;;;5.65;2.60;;;;;;;31.98;32.43;101024.07;1674471;84;21849;-72
2021/07/14 04:29:53;;;;;;;15.03;3.35;;;;;;;32.38;31.71;101020.33;1681011;84;21329;-72
2021/07/14 04:32:26;;;;;;;9.30;2.90;;;;;;;32.78;31.14;101021.66;1697080;84;21190;-71
2021/07/14 04:34:59;;;;;;;8.93;3.00;;;;;;;33.13;30.54;101023.19;1697158;84;21275;-73
2021/07/14 04:37:32;;;;;;;11.40;2.77;;;;;;;33.55;29.76;101016.28;1688196;84;21812;-72
2021/07/14 04:40:07;;;;;;;19.80;3.25;;;;;;;33.99;29.26;101021.46;1681639;84;21296;-73
2021/07/14 04:42:40;;;;;;;11.95;2.85;;;;;;;34.39;28.73;101025.52;1695908;84;21291;-73
2021/07/14 04:45:12;;;;;;;;;;;;;;;34.79;28.14;101017.03;1691493;84;21180;-71
2021/07/14 04:47:44;;;;;;;10.68;2.50;;;;;;;35.17;27.62;101010.90;1670483;84;20242;-72
2021/07/14 04:50:17;;;;;;;11.65;2.90;;;;;;;35.47;27.21;101014.80;1654624;84;21204;-74
2021/07/14 04:52:50;;;;;;;8.73;3.10;;;;;;;35.86;26.70;101021.62;1665596;84;21343;-76
2021/07/14 04:55:23;;;;;;;19.65;3.80;;;;;;;36.26;26.25;101023.20;1682249;84;21991;-72
2021/07/14 04:57:56;;;;;;;9.70;3.30;;;;;;;36.59;25.71;101020.17;1677375;84;21232;-72
2021/07/14 05:00:29;;;;;;;15.95;2.95;;;;;;;36.87;25.38;101023.37;1670504;82;21212;-70
2021/07/14 05:03:04;;;;;;;9.35;2.60;;;;;;;37.18;24.86;101023.28;1669689;83;21295;-72
2021/07/14 05:05:37;;;;;;;8.35;2.80;;;;;;;37.56;24.56;101018.66;1642226;84;21312;-72
2021/07/14 05:08:10;;;;;;;9.38;2.50;;;;;;;37.86;24.20;101024.23;1622514;85;21310;-72
2021/07/14 05:10:43;;;;;;;5.75;2.47;;;;;;;38.25;23.79;101021.89;1676266;83;21375;-76
2021/07/14 05:13:18;;;;;;;13.88;2.83;;;;;;;38.56;23.53;101020.23;1677557;83;21234;-72
2021/07/14 05:15:51;;;;;;;15.45;3.27;;;;;;;38.97;22.99;101013.39;1677394;83;21291;-74
2021/07/14 05:18:25;;;;;;;11.95;2.83;;;;;;;39.39;22.58;101012.19;1672526;82;21213;-74
2021/07/14 05:20:59;;;;;;;11.83;3.27;;;;;;;39.86;22.12;101015.75;1665437;83;21268;-76
2021/07/14 05:23:32;;;;;;;14.13;4.08;;;;;;;40.23;21.55;101011.22;1680169;83;21794;-73
2021/07/14 05:26:06;;;;;;;17.07;6.60;;;;;;;40.58;21.25;101016.89;1677226;82;21205;-75
2021/07/14 05:28:40;;;;;;;11.80;4.00;;;;;;;40.92;20.95;101013.70;1670442;83;21212;-74
2021/07/14 05:31:13;;;;;;;11.90;4.75;;;;;;;41.26;20.79;101011.56;1676423;82;21313;-75
2021/07/14 05:33:46;;;;;;;18.80;4.22;;;;;;;41.62;20.58;101017.57;1679936;82;21221;-74
2021/07/14 05:36:20;;;;;;;14.28;3.80;;;;;;;41.99;20.16;101011.16;1677988;83;21349;-74
2021/07/14 05:38:57;;;;;;;13.70;4.65;;;;;;;42.29;19.83;101014.23;1667053;83;21335;-76
2021/07/14 05:41:28;;;;;;;13.38;3.52;;;;;;;42.59;19.42;101013.70;1655034;83;21351;-75
2021/07/14 05:44:01;;;;;;;11.30;2.60;;;;;;;42.84;19.29;101011.39;1680275;83;21296;-74
2021/07/14 05:46:35;;;;;;;6.10;2.95;;;;;;;43.14;18.94;101008.03;1680875;83;21312;-73
2021/07/14 05:49:08;;;;;;;7.75;2.83;;;;;;;43.34;18.80;101004.52;1663348;83;21353;-74
2021/07/14 05:51:41;;;;;;;12.10;2.92;;;;;;;43.56;18.56;101000.02;1668219;83;21350;-75
2021/07/14 05:54:14;;;;;;;8.15;2.20;;;;;;;43.80;18.12;100997.38;1662505;83;21365;-72
2021/07/14 05:56:47;;;;;;;5.37;2.47;;;;;;;43.97;18.17;100995.00;1661971;83;21185;-73
2021/07/14 05:59:22;;;;;;;5.40;2.30;;;;;;;44.26;17.94;101000.94;1660459;83;21347;-75
2021/07/14 06:01:55;;;;;;;10.10;2.70;;;;;;;44.49;17.74;100999.36;1665756;83;21431;-74
2021/07/14 06:04:28;;;;;;;3.45;2.35;;;;;;;44.68;17.56;101000.39;1675323;83;22218;-75
2021/07/14 06:07:01;;;;;;;11.50;2.60;;;;;;;44.95;17.37;100996.69;1681599;83;21284;-72
2021/07/14 06:09:39;;;;;;;8.50;2.95;;;;;;;45.19;17.19;100990.50;1682537;83;21449;-73
2021/07/14 06:12:11;;;;;;;9.25;2.55;;;;;;;45.48;17.05;100991.36;1658693;84;21281;-73
2021/07/14 06:14:46;;;;;;;11.68;2.87;;;;;;;45.66;16.91;100989.91;1675014;83;21173;-74
2021/07/14 06:17:20;;;;;;;12.45;2.55;;;;;;;45.83;16.74;100986.25;1663891;83;21343;-75
2021/07/14 06:19:57;;;;;;;6.72;2.27;;;;;;;46.03;16.65;100995.46;1675105;83;21247;-74
2021/07/14 06:22:36;;;;;;;9.33;5.08;;;;;;;46.20;16.30;100988.19;1675194;83;21312;-73
2021/07/14 06:25:18;;;;;;;8.83;4.03;;;;;;;46.43;16.17;100991.98;1678981;83;21253;-72
2021/07/14 06:27:53;;;;;;;13.70;2.58;;;;;;;46.62;16.12;100997.55;1666293;83;21295;-77
2021/07/14 06:30:29;;;;;;;6.03;2.25;;;;;;;46.74;15.85;100992.52;1669957;83;21301;-75
2021/07/14 06:33:07;;;;;;;10.30;2.37;;;;;;;46.81;15.78;100989.10;1660716;83;22344;-73
2021/07/14 06:35:40;;;;;;;11.65;2.60;;;;;;;47.00;15.95;100994.67;1675597;83;22350;-72
2021/07/14 06:38:14;;;;;;;10.00;3.10;;;;;;;47.21;15.50;100989.59;1679892;82;21275;-74
2021/07/14 06:40:55;;;;;;;7.35;2.35;;;;;;;47.38;15.49;100989.16;1676423;82;21308;-73
2021/07/14 06:43:45;;;;;;;9.00;2.52;;;;;;;47.52;15.22;100988.08;1665317;83;22107;-73
2021/07/14 06:46:12;;;;;;;7.25;2.08;;;;;;;47.80;15.04;100989.20;1668869;83;21213;-72
2021/07/14 06:48:46;;;;;;;4.80;2.35;;;;;;;48.09;14.76;100988.53;1665099;83;21338;-73
2021/07/14 06:51:19;;;;;;;10.40;2.58;;;;;;;48.36;14.39;100979.67;1668829;82;21202;-73
2021/07/14 06:53:53;;;;;;;4.85;2.15;;;;;;;48.57;14.20;100977.24;1664238;83;21200;-72
2021/07/14 06:56:26;;;;;;;5.83;2.33;;;;;;;48.80;13.60;100975.79;1661769;83;21764;-73
2021/07/14 06:59:00;;;;;;;8.98;2.22;;;;;;;49.01;12.95;100984.44;1675783;83;21779;-74
2021/07/14 07:01:33;;;;;;;5.08;2.00;;;;;;;49.17;12.50;100982.25;1673967;83;21328;-75
2021/07/14 07:04:06;;;;;;;7.30;1.92;;;;;;;49.43;12.37;100983.57;1667723;82;21369;-74
2021/07/14 07:06:41;;;;;;;5.47;2.00;;;;;;;49.53;11.75;100979.30;1682998;83;21902;-70
2021/07/14 07:09:14;;;;;;;6.10;2.00;;;;;;;49.48;12.00;100972.09;1667408;83;21366;-74
2021/07/14 07:11:48;;;;;;;1.92;1.72;;;;;;;49.60;11.80;100976.03;1677122;83;21879;-73
2021/07/14 07:14:22;;;;;;;4.62;1.80;;;;;;;49.79;11.45;100970.25;1679734;83;21243;-69
2021/07/14 07:16:56;;;;;;;9.18;2.10;;;;;;;49.95;11.18;100973.38;1677262;83;21291;-73
2021/07/14 07:19:29;;;;;;;6.92;2.20;;;;;;;50.06;10.48;100968.13;1679439;83;21356;-73
2021/07/14 07:22:02;;;;;;;5.28;1.95;;;;;;;50.07;10.97;100971.11;1656552;82;21273;-75
2021/07/14 07:24:36;;;;;;;5.30;2.20;;;;;;;50.11;10.66;100970.56;1659645;83;21198;-73
2021/07/14 07:27:10;;;;;;;9.58;2.20;;;;;;;50.05;10.72;100969.30;1670191;83;22492;-72
2021/07/14 07:29:54;;;;;;;5.62;1.90;;;;;;;50.07;10.90;100967.52;1677681;82;21278;-67
2021/07/14 07:32:30;;;;;;;6.50;2.08;;;;;;;50.21;10.37;100962.08;1669852;83;21221;-71
2021/07/14 07:35:05;;;;;;;7.90;3.00;;;;;;;50.18;10.35;100953.91;1643049;84;21371;-69
2021/07/14 07:37:38;;;;;;;13.68;3.85;;;;;;;50.22;10.60;100951.16;1630428;85;21326;-68
2021/07/14 07:40:14;;;;;;;9.05;2.30;;;;;;;50.33;10.28;100952.02;1625949;85;22636;-68
2021/07/14 07:42:48;;;;;;;4.40;2.60;;;;;;;50.42;10.37;100951.10;1673697;83;21331;-69
2021/07/14 07:45:21;;;;;;;6.55;2.00;;;;;;;50.59;9.79;100943.45;1670624;82;21369;-69
2021/07/14 07:47:56;;;;;;;6.15;1.90;;;;;;;50.59;9.65;100948.25;1669147;83;21338;-68
2021/07/14 07:50:30;;;;;;;5.15;2.40;;;;;;;50.21;8.33;100943.98;1669097;82;21855;-72
2021/07/14 07:53:03;;;;;;;6.55;2.00;;;;;;;49.67;8.87;100951.64;1673354;83;21324;-68
2021/07/14 07:55:36;;;;;;;5.75;1.85;;;;;;;49.50;9.42;100946.08;1677295;83;21312;-66
2021/07/14 07:58:09;;;;;;;5.15;1.90;;;;;;;49.38;8.59;100948.33;1661643;83;21315;-68
2021/07/14 08:00:42;;;;;;;14.90;2.15;;;;;;;49.03;9.27;100948.70;1665076;83;21287;-69
2021/07/14 08:03:18;;;;;;;3.47;1.47;;;;;;;48.73;9.13;100943.13;1666659;82;21902;-69
2021/07/14 08:05:52;;;;;;;2.85;1.40;;;;;;;48.17;9.53;100940.89;1679623;83;21252;-72
2021/07/14 08:08:25;;;;;;;3.40;1.55;;;;;;;47.67;9.78;100946.14;1666299;83;21323;-68
2021/07/14 08:10:59;;;;;;;15.00;2.52;;;;;;;47.37;9.90;100948.13;1675653;82;21687;-70
2021/07/14 08:13:33;;;;;;;6.90;1.77;;;;;;;47.05;9.77;100953.61;1677266;83;21915;-70
2021/07/14 08:16:07;;;;;;;1.55;1.15;;;;;;;46.73;9.87;100952.11;1667204;83;21204;-68
2021/07/14 08:18:41;;;;;;;3.27;1.50;;;;;;;46.55;9.70;100947.52;1668562;82;21221;-67
2021/07/14 08:21:15;;;;;;;4.90;1.37;;;;;;;46.53;10.18;100943.50;1667139;83;21391;-73
2021/07/14 08:23:49;;;;;;;4.47;1.20;;;;;;;46.59;10.18;100943.45;1677210;83;21302;-70
2021/07/14 08:26:22;;;;;;;3.62;1.95;;;;;;;46.42;10.02;100942.47;1682750;83;21343;-73
2021/07/14 08:28:55;;;;;;;4.20;1.30;;;;;;;46.46;10.55;100937.80;1674439;83;21308;-69
2021/07/14 08:31:28;;;;;;;2.95;1.10;;;;;;;46.42;10.24;100940.50;1674332;83;21683;-68
2021/07/14 08:34:04;;;;;;;4.05;1.07;;;;;;;46.27;10.19;100937.72;1665388;84;21280;-66
2021/07/14 08:36:38;;;;;;;3.17;1.17;;;;;;;46.28;10.32;100926.88;1682196;83;21316;-70
2021/07/14 08:39:11;;;;;;;4.08;0.93;;;;;;;46.31;10.32;100922.01;1670395;83;21860;-73
2021/07/14 08:41:45;;;;;;;3.45;1.00;;;;;;;46.25;9.97;100924.24;1660431;84;21295;-73
2021/07/14 08:44:18;;;;;;;4.97;1.10;;;;;;;46.08;10.37;100927.38;1665722;83;21331;-70
2021/07/14 08:46:51;;;;;;;1.17;1.00;;;;;;;45.73;10.70;100929.23;1659504;83;21899;-71
2021/07/14 08:49:25;;;;;;;2.65;1.00;;;;;;;45.53;10.47;100928.28;1688669;82;21320;-72
2021/07/14 08:51:58;;;;;;;16.97;1.77;;;;;;;45.44;10.88;100924.31;1667716;83;21356;-68
2021/07/14 08:54:32;;;;;;;4.40;1.00;;;;;;;45.09;11.17;100924.68;1674141;82;21309;-72
2021/07/14 08:57:06;;;;;;;5.05;1.40;;;;;;;44.81;10.96;100918.27;1679446;83;21362;-73
2021/07/14 08:59:39;;;;;;;4.65;1.10;;;;;;;44.53;11.82;100933.98;1655899;84;21247;-68
2021/07/14 09:02:13;;;;;;;5.05;1.30;;;;;;;44.19;11.44;100928.34;1659317;82;22256;-72
2021/07/14 09:04:46;;;;;;;3.77;1.12;;;;;;;44.02;12.23;100927.95;1678932;83;21319;-71
2021/07/14 09:07:20;;;;;;;1.20;0.80;;;;;;;43.69;11.93;100925.84;1664430;83;21180;-71
2021/07/14 09:09:53;;;;;;;3.55;1.10;;;;;;;43.33;11.85;100926.52;1664422;83;21216;-69
2021/07/14 09:12:39;;;;;;;3.80;1.10;;;;;;;43.10;11.88;100923.06;1681758;83;21200;-68
2021/07/14 09:15:15;;;;;;;5.28;1.00;;;;;;;42.90;12.00;100918.60;1662829;83;21302;-69
2021/07/14 09:17:52;;;;;;;1.62;0.90;;;;;;;42.54;12.51;100922.47;1658036;82;21192;-69
2021/07/14 09:20:31;;;;;;;3.17;1.02;;;;;;;42.26;12.50;100919.94;1658799;84;21320;-71
2021/07/14 09:23:19;;;;;;;3.10;1.17;;;;;;;42.14;12.48;100917.09;1668588;83;21330;-68
2021/07/14 09:25:56;;;;;;;3.62;1.10;;;;;;;42.06;12.54;100911.83;1673300;83;22237;-71
2021/07/14 09:28:37;;;;;;;4.85;1.10;;;;;;;42.01;12.81;100912.00;1671403;83;21331;-70
2021/07/14 09:31:09;;;;;;;7.72;1.15;;;;;;;41.79;13.61;100913.65;1672421;83;21302;-71
2021/07/14 09:33:45;;;;;;;5.42;1.07;;;;;;;41.42;13.64;100918.46;1674685;84;21268;-72
2021/07/14 09:36:19;;;;;;;3.40;0.98;;;;;;;41.01;13.90;100909.33;1657983;83;21386;-72
2021/07/14 09:38:52;;;;;;;14.28;1.70;;;;;;;40.43;14.44;100913.82;1676207;84;21324;-68
2021/07/14 09:41:25;;;;;;;5.00;1.10;;;;;;;39.98;14.99;100918.64;1656060;84;21334;-67
2021/07/14 09:43:58;;;;;;;4.90;1.15;;;;;;;39.72;15.07;100908.08;1649673;84;21978;-69
2021/07/14 09:46:31;;;;;;;3.33;1.10;;;;;;;39.48;14.99;100904.28;1656668;84;21909;-68
2021/07/14 09:49:10;;;;;;;6.53;1.05;;;;;;;39.34;15.19;100905.50;1672988;83;21333;-71
2021/07/14 09:51:43;;;;;;;14.40;1.80;;;;;;;39.18;15.43;100900.93;1665978;83;21564;-72
2021/07/14 09:54:18;;;;;;;1.85;1.10;;;;;;;38.88;16.21;100898.89;1676865;83;21304;-71
2021/07/14 09:56:51;;;;;;;3.87;1.22;;;;;;;38.58;16.56;100903.62;1656516;84;21569;-70
2021/07/14 09:59:26;;;;;;;4.35;1.30;;;;;;;38.19;16.13;100910.98;1664878;82;21225;-69
2021/07/14 10:02:01;;;;;;;4.33;1.42;;;;;;;37.88;16.48;100910.72;1614120;86;21874;-70
2021/07/14 10:04:36;;;;;;;6.85;0.88;;;;;;;37.63;16.66;100911.16;1611621;87;21341;-71
2021/07/14 10:07:28;;;;;;;3.58;0.95;;;;;;;37.40;17.19;100908.02;1685333;83;21342;-69
2021/07/14 10:10:04;;;;;;;2.27;0.90;;;;;;;37.23;17.04;100896.78;1663665;84;21307;-70
2021/07/14 10:12:39;;;;;;;3.15;1.47;;;;;;;37.12;17.44;100904.31;1630738;84;21215;-69
2021/07/14 10:15:20;;;;;;;4.92;1.02;;;;;;;37.02;17.42;100906.64;1672508;83;21768;-69
2021/07/14 10:17:54;;;;;;;4.55;1.17;;;;;;;36.91;17.56;100909.23;1666296;83;21208;-69
2021/07/14 10:20:30;;;;;;;;;;;;;;;36.74;18.29;100902.66;1666462;83;21339;-68
2021/07/14 10:23:15;;;;;;;4.47;1.10;;;;;;;36.70;17.80;100903.81;1666251;83;20281;-70
2021/07/14 10:25:48;;;;;;;2.50;1.00;;;;;;;36.54;17.80;100907.03;1672797;82;21361;-67
2021/07/14 10:28:23;;;;;;;5.53;1.25;;;;;;;36.38;18.16;100901.72;1684250;83;21300;-71
2021/07/14 10:30:56;;;;;;;3.55;1.10;;;;;;;36.21;18.26;100904.65;1661728;83;21352;-72
2021/07/14 10:33:28;;;;;;;3.87;0.90;;;;;;;36.09;18.71;100892.00;1655900;83;21372;-67
2021/07/14 10:36:02;;;;;;;4.42;1.20;;;;;;;36.02;18.80;100892.90;1662251;83;21256;-67
2021/07/14 10:38:35;;;;;;;10.38;1.80;;;;;;;35.93;18.87;100887.77;1676158;83;21304;-66
2021/07/14 10:41:08;;;;;;;4.50;1.02;;;;;;;35.87;19.10;100891.11;1650792;83;21373;-73
2021/07/14 10:43:43;;;;;;;4.40;1.10;;;;;;;35.71;19.12;100895.06;1672798;82;21821;-68
2021/07/14 10:46:24;;;;;;;1.77;0.88;;;;;;;35.48;19.13;100899.34;1663729;84;21225;-68
2021/07/14 10:48:59;;;;;;;4.08;1.00;;;;;;;35.32;19.09;100896.48;1668495;83;21351;-68
2021/07/14 10:51:33;;;;;;;8.30;1.35;;;;;;;35.20;19.42;100892.73;1679786;82;21823;-71
2021/07/14 10:54:11;;;;;;;1.62;0.90;;;;;;;35.09;19.35;100893.91;1659508;84;21251;-66
2021/07/14 10:56:48;;;;;;;1.87;1.10;;;;;;;35.00;19.62;100884.69;1676121;83;21376;-71
2021/07/14 10:59:23;;;;;;;3.47;1.10;;;;;;;34.94;19.47;100880.36;1676106;83;21319;-69
2021/07/14 11:01:56;;;;;;;4.10;1.00;;;;;;;34.89;20.04;100883.68;1682789;83;21256;-68
2021/07/14 11:04:35;;;;;;;4.72;1.10;;;;;;;34.81;19.68;100872.02;1689170;82;21181;-69
2021/07/14 11:07:46;;;;;;;7.50;1.20;;;;;;;34.76;20.33;100872.87;1690901;82;21314;-69
2021/07/14 11:10:38;;;;;;;3.33;1.07;;;;;;;34.80;20.56;100874.49;1657039;83;21182;-68
2021/07/14 11:13:31;;;;;;;;;;;;;;;34.91;20.82;100877.41;1684577;82;21353;-72
2021/07/14 11:16:24;;;;;;;3.25;1.32;;;;;;;35.01;20.97;100865.89;1674071;83;20891;-69
2021/07/14 11:19:14;;;;;;;5.75;1.20;;;;;;;35.09;20.71;100863.97;1655745;82;21385;-73
2021/07/14 11:22:05;;;;;;;3.10;0.93;;;;;;;35.18;20.80;100858.75;1664994;82;21403;-70
2021/07/14 11:24:51;;;;;;;2.75;1.10;;;;;;;35.23;20.65;100865.48;1665555;82;21295;-68
2021/07/14 11:27:37;;;;;;;5.53;1.25;;;;;;;35.22;20.12;100861.70;1673413;83;21354;-67
2021/07/14 11:30:14;;;;;;;26.62;2.55;;;;;;;35.13;20.63;100858.79;1668452;83;21321;-72
2021/07/14 11:32:52;;;;;;;18.45;1.90;;;;;;;35.09;21.22;100862.61;1670838;82;21299;-70
2021/07/14 11:35:40;;;;;;;6.20;1.20;;;;;;;35.00;20.72;100860.20;1672374;83;21358;-70
2021/07/14 11:38:16;;;;;;;6.78;1.60;;;;;;;34.85;20.05;100856.21;1687037;82;21310;-69
2021/07/14 11:40:53;;;;;;;6.37;1.62;;;;;;;34.73;20.69;100859.82;1670762;84;21330;-71
2021/07/14 11:43:33;;;;;;;2.02;1.27;;;;;;;34.61;20.81;100857.98;1665680;83;21307;-68
2021/07/14 11:46:10;;;;;;;5.42;1.02;;;;;;;34.46;20.58;100848.53;1666803;83;21306;-70
2021/07/14 11:48:53;;;;;;;4.67;1.35;;;;;;;34.32;20.94;100848.88;1661006;83;21406;-69
2021/07/14 11:51:22;;;;;;;3.92;1.30;;;;;;;34.18;20.72;100847.84;1659794;84;21352;-68
2021/07/14 11:53:59;;;;;;;1.62;1.20;;;;;;;34.10;20.40;100847.05;1663437;83;21851;-69
2021/07/14 11:56:39;;;;;;;2.47;1.20;;;;;;;34.03;20.39;100839.16;1667233;83;21164;-69
2021/07/14 11:59:23;;;;;;;1.87;0.82;;;;;;;34.00;20.68;100832.09;1674908;83;21338;-67
2021/07/14 12:02:04;;;;;;;3.20;1.10;;;;;;;34.01;20.61;100830.45;1654515;84;21186;-67
2021/07/14 12:04:38;;;;;;;10.72;1.55;;;;;;;34.05;20.83;100837.55;1631789;84;21305;-69
2021/07/14 12:07:13;;;;;;;2.83;1.35;;;;;;;34.00;20.72;100834.28;1676522;83;21205;-69
2021/07/14 12:09:47;;;;;;;7.95;1.10;;;;;;;33.96;20.52;100834.57;1678834;83;21690;-69